Time;durP1;ratioP1;P1;durP2;ratioP2;P2;SDS_P1;SDS_P2;PMS_P1;PMS_P2;Temp;Humidity;BMP_temperature;BMP_pressure;BME280_temperature;BME280_humidity;BME280_pressure;Samples;Min_cycle;Max_cycle;Signal;HPM_P1;HPM_P2
2022/06/24 02:06:39;;;;;;;3.42;1.58;;;19.20;92.50;;;;;;6215369;23;20052;-91
2022/06/24 02:09:06;;;;;;;3.45;1.60;;;19.20;92.90;;;;;;6167066;23;20024;-90
2022/06/24 02:14:18;;;;;;;3.70;2.03;;;19.10;92.70;;;;;;6190851;23;20040;-90
2022/06/24 02:16:45;;;;;;;4.53;2.00;;;19.10;92.40;;;;;;6166313;23;20020;-90
2022/06/24 02:19:12;;;;;;;3.10;1.83;;;19.00;92.00;;;;;;6165985;23;20374;-90
2022/06/24 02:21:37;;;;;;;3.50;1.80;;;19.00;91.90;;;;;;6166678;23;20020;-91
2022/06/24 02:24:36;;;;;;;4.15;2.28;;;19.00;92.10;;;;;;6191017;23;20013;-90
2022/06/24 02:27:05;;;;;;;4.38;2.10;;;19.00;92.00;;;;;;6144594;23;20027;-91
2022/06/24 02:29:30;;;;;;;3.95;2.05;;;19.00;91.90;;;;;;6190917;23;20055;-91
2022/06/24 02:36:03;;;;;;;3.17;2.00;;;19.00;91.90;;;;;;6154276;23;20438;-91
2022/06/24 02:39:25;;;;;;;5.95;2.28;;;18.90;91.90;;;;;;6166029;23;20021;-91
2022/06/24 03:18:33;;;;;;;4.18;2.35;;;18.10;92.60;;;;;;6246805;22;20372;-90
2022/06/24 03:20:59;;;;;;;4.05;2.25;;;18.10;92.60;;;;;;6195530;23;20099;-90
2022/06/24 03:23:24;;;;;;;4.38;2.60;;;18.10;92.70;;;;;;6195481;23;20026;-88
2022/06/24 03:25:50;;;;;;;5.43;2.33;;;18.10;92.80;;;;;;6195958;23;20027;-89
2022/06/24 03:28:16;;;;;;;3.65;2.17;;;18.00;92.90;;;;;;6195780;23;20027;-89
2022/06/24 03:30:42;;;;;;;4.32;2.35;;;18.00;93.10;;;;;;6196347;23;20020;-90
2022/06/24 03:33:07;;;;;;;4.05;2.30;;;18.00;93.10;;;;;;6205769;23;20067;-88
2022/06/24 03:35:34;;;;;;;5.07;2.38;;;18.00;93.20;;;;;;6199618;23;20087;-90
2022/06/24 03:38:00;;;;;;;4.15;2.17;;;18.10;93.20;;;;;;6195676;23;20027;-90
2022/06/24 03:40:35;;;;;;;4.32;2.30;;;18.10;93.30;;;;;;6195163;23;20016;-91
2022/06/24 03:43:01;;;;;;;4.05;2.22;;;18.10;93.60;;;;;;6195460;23;20441;-90
2022/06/24 03:45:27;;;;;;;4.97;2.85;;;18.10;93.70;;;;;;6195629;23;20020;-91
2022/06/24 03:47:52;;;;;;;3.50;2.30;;;18.20;93.70;;;;;;6194491;23;20012;-91
2022/06/24 03:50:18;;;;;;;4.22;2.13;;;18.30;93.90;;;;;;6195941;23;20016;-90
2022/06/24 03:52:46;;;;;;;4.47;2.85;;;18.40;94.10;;;;;;6195093;23;20115;-91
2022/06/24 03:55:12;;;;;;;3.88;2.05;;;18.50;94.30;;;;;;6195342;23;20016;-90
2022/06/24 03:58:18;;;;;;;6.78;3.15;;;18.50;94.20;;;;;;6194992;23;20382;-92
2022/06/24 04:01:03;;;;;;;5.20;2.40;;;18.50;94.20;;;;;;6099965;23;20026;-92
2022/06/24 04:04:33;;;;;;;4.32;2.50;;;18.50;94.40;;;;;;6195569;23;20020;-92
2022/06/24 04:06:58;;;;;;;4.85;2.72;;;18.50;94.50;;;;;;6220423;23;20139;-91
2022/06/24 04:09:26;;;;;;;4.15;2.60;;;18.50;94.30;;;;;;6197495;23;20078;-90
2022/06/24 04:11:54;;;;;;;4.43;2.42;;;18.40;94.20;;;;;;6206867;23;20346;-91
2022/06/24 04:17:06;;;;;;;4.90;2.67;;;18.40;94.30;;;;;;6160134;23;20016;-90
2022/06/24 04:19:35;;;;;;;4.50;2.70;;;18.40;94.40;;;;;;6195020;23;20049;-91
2022/06/24 04:22:45;;;;;;;5.00;2.63;;;18.30;94.80;;;;;;6194998;23;20042;-94
2022/06/24 04:25:50;;;;;;;3.70;2.40;;;18.40;95.00;;;;;;6194740;23;20020;-92
2022/06/24 04:28:17;;;;;;;4.45;2.65;;;18.30;95.00;;;;;;6204587;23;20091;-91
2022/06/24 04:30:46;;;;;;;4.32;2.60;;;18.40;94.80;;;;;;6194397;23;20078;-91
2022/06/24 06:12:47;;;;;;;5.25;2.67;;;20.80;94.90;;;;;;6277464;22;20024;-93
2022/06/24 06:15:13;;;;;;;4.88;2.75;;;20.80;94.80;;;;;;6251586;22;20028;-95
2022/06/24 06:25:33;;;;;;;7.45;4.05;;;20.60;95.00;;;;;;6187682;22;20024;-93
2022/06/24 06:28:05;;;;;;;6.55;3.67;;;20.50;95.30;;;;;;6160710;23;20032;-91
2022/06/24 06:30:31;;;;;;;7.70;4.03;;;20.50;96.20;;;;;;6165046;23;20072;-92
2022/06/24 11:10:33;;;;;;;5.13;2.17;;;19.50;99.90;;;;;;6222104;22;20043;-89
2022/06/24 11:13:29;;;;;;;4.35;2.25;;;19.60;99.90;;;;;;6205443;23;20023;-89
2022/06/24 11:15:59;;;;;;;3.38;1.73;;;19.50;99.90;;;;;;6209328;23;20047;-88
2022/06/24 11:19:00;;;;;;;3.50;1.60;;;19.50;99.90;;;;;;6209824;23;20048;-89
2022/06/24 11:21:29;;;;;;;2.95;1.55;;;19.40;99.90;;;;;;6209133;23;20035;-90
2022/06/24 11:24:20;;;;;;;2.58;1.40;;;19.40;99.90;;;;;;6208459;23;20025;-92
2022/06/24 11:39:43;;;;;;;3.10;0.80;;;18.80;99.90;;;;;;6205104;22;20009;-90
2022/06/24 11:42:43;;;;;;;2.45;0.75;;;18.70;99.90;;;;;;6157064;23;20354;-90
2022/06/24 11:45:11;;;;;;;1.50;0.90;;;18.70;99.90;;;;;;6154363;23;20025;-89
2022/06/24 14:32:36;;;;;;;8.48;4.57;;;20.50;99.90;;;;;;6233256;22;20714;-94
2022/06/24 14:35:15;;;;;;;6.85;4.43;;;20.60;99.90;;;;;;6221278;23;20043;-95
2022/06/24 14:40:33;;;;;;;9.55;5.50;;;20.70;99.90;;;;;;6245933;23;20028;-94
2022/06/24 14:43:02;;;;;;;9.63;5.60;;;20.80;99.90;;;;;;6221696;23;20056;-94
2022/06/24 14:45:34;;;;;;;8.43;5.20;;;20.90;99.90;;;;;;6221291;23;20012;-92
2022/06/24 14:48:01;;;;;;;7.68;5.65;;;20.80;99.90;;;;;;6221869;23;20016;-94
2022/06/24 14:50:28;;;;;;;11.45;6.03;;;20.80;99.90;;;;;;6222915;23;20019;-94
2022/06/24 14:52:54;;;;;;;8.07;5.20;;;20.90;99.90;;;;;;6258269;23;20012;-91
2022/06/24 14:55:19;;;;;;;11.70;6.00;;;20.90;99.90;;;;;;6235262;23;20070;-95
2022/06/24 14:57:45;;;;;;;12.05;7.13;;;20.90;99.90;;;;;;6246312;23;20062;-93
2022/06/24 15:00:11;;;;;;;10.43;6.15;;;21.00;99.90;;;;;;6220841;23;20058;-94
2022/06/24 15:02:37;;;;;;;10.88;6.32;;;21.00;99.90;;;;;;6221274;23;20020;-92
2022/06/24 15:05:06;;;;;;;9.23;5.63;;;21.00;99.90;;;;;;6221237;23;20023;-93
2022/06/24 15:07:32;;;;;;;10.00;6.93;;;21.00;99.90;;;;;;6220949;23;20012;-93
2022/06/24 23:10:52;;;;;;;10.10;7.22;;;18.40;99.90;;;;;;6132847;23;20493;-90
2022/06/24 23:13:18;;;;;;;9.23;6.25;;;18.40;99.90;;;;;;6195136;23;20058;-95
2022/06/24 23:15:43;;;;;;;9.13;6.35;;;18.40;99.90;;;;;;6170627;23;20018;-95
2022/06/24 23:18:09;;;;;;;9.93;6.90;;;18.40;99.90;;;;;;6195379;23;20516;-92
2022/06/24 23:20:35;;;;;;;11.10;6.72;;;18.40;99.90;;;;;;6194788;23;20359;-90
2022/06/24 23:23:20;;;;;;;9.20;6.47;;;18.30;99.90;;;;;;6195783;23;20023;-94
2022/06/24 23:25:45;;;;;;;9.52;6.68;;;18.30;99.90;;;;;;6170465;23;20375;-89
2022/06/24 23:28:11;;;;;;;11.23;7.32;;;18.30;99.90;;;;;;6195098;23;20065;-90
2022/06/24 23:30:37;;;;;;;9.55;6.28;;;18.20;99.90;;;;;;6169787;23;20018;-92
2022/06/24 23:33:02;;;;;;;10.15;6.30;;;18.20;99.90;;;;;;6194703;23;20030;-94
2022/06/24 23:35:30;;;;;;;8.65;6.22;;;18.20;99.90;;;;;;6195259;23;20030;-95
2022/06/24 23:37:56;;;;;;;10.55;7.45;;;18.20;99.90;;;;;;6194644;23;20010;-95
2022/06/24 23:40:22;;;;;;;10.05;6.60;;;18.20;99.90;;;;;;6194768;23;20097;-90
2022/06/24 23:42:47;;;;;;;10.75;7.07;;;18.20;99.90;;;;;;6194678;23;20062;-93
2022/06/24 23:45:13;;;;;;;11.52;7.68;;;18.20;99.90;;;;;;6195317;23;20076;-90
2022/06/24 23:53:07;;;;;;;9.85;6.80;;;18.20;99.90;;;;;;6092238;23;20033;-94
2022/06/24 23:55:33;;;;;;;11.00;6.93;;;18.20;99.90;;;;;;6194487;23;20101;-92
2022/06/24 23:57:58;;;;;;;9.38;6.18;;;18.20;99.90;;;;;;6195013;23;20025;-91
